createdAt,value
2023-01-31T00:01:38.684Z,3.10
2023-01-31T00:04:09.286Z,3.40
2023-01-31T00:06:40.265Z,2.70
2023-01-31T00:09:08.885Z,3.83
2023-01-31T00:11:36.278Z,2.67
2023-01-31T00:14:05.851Z,3.55
2023-01-31T00:16:33.256Z,2.85
2023-01-31T00:19:00.829Z,3.55
2023-01-31T00:21:30.180Z,3.08
2023-01-31T00:23:58.405Z,3.47
2023-01-31T00:26:30.019Z,3.92
2023-01-31T00:28:59.073Z,3.78
2023-01-31T00:31:28.190Z,3.42
2023-01-31T00:33:56.583Z,3.47
2023-01-31T00:36:27.368Z,3.38
2023-01-31T00:38:57.169Z,3.30
2023-01-31T00:41:26.209Z,3.15
2023-01-31T00:43:53.658Z,3.78
2023-01-31T00:46:22.453Z,3.30
2023-01-31T00:48:50.296Z,3.10
2023-01-31T00:51:18.424Z,3.75
2023-01-31T00:53:45.925Z,3.10
2023-01-31T00:56:15.750Z,3.55
2023-01-31T00:58:43.045Z,3.53
2023-01-31T01:01:15.714Z,3.47
2023-01-31T01:03:44.327Z,3.05
2023-01-31T01:06:12.385Z,2.90
2023-01-31T01:08:44.225Z,3.47
2023-01-31T01:11:17.575Z,3.20
2023-01-31T01:13:45.353Z,2.90
2023-01-31T01:16:16.676Z,2.72
2023-01-31T01:18:47.303Z,2.78
2023-01-31T01:21:17.610Z,3.17
2023-01-31T01:23:44.723Z,2.67
2023-01-31T01:26:16.924Z,2.80
2023-01-31T01:28:44.238Z,3.00
2023-01-31T01:31:13.156Z,2.22
2023-01-31T01:33:41.122Z,3.65
2023-01-31T01:36:13.514Z,4.28
2023-01-31T01:38:42.356Z,2.70
2023-01-31T01:41:11.024Z,2.60
2023-01-31T01:43:42.605Z,2.30
2023-01-31T01:46:36.510Z,2.97
2023-01-31T01:49:24.263Z,2.50
2023-01-31T01:51:54.093Z,2.90
2023-01-31T01:54:31.595Z,2.17
2023-01-31T01:57:02.147Z,2.78
2023-01-31T01:59:35.226Z,3.08
2023-01-31T02:02:03.638Z,2.88
2023-01-31T02:04:36.369Z,3.03
2023-01-31T02:07:04.344Z,2.15
2023-01-31T02:10:02.126Z,2.63
2023-01-31T02:12:30.892Z,2.63
2023-01-31T02:14:58.161Z,1.90
2023-01-31T02:17:26.747Z,2.35
2023-01-31T02:20:05.906Z,2.17
2023-01-31T02:22:54.538Z,2.28
2023-01-31T02:25:47.611Z,2.10
2023-01-31T02:28:54.761Z,2.28
2023-01-31T02:31:40.699Z,2.42
2023-01-31T02:34:16.627Z,2.55
2023-01-31T02:37:03.346Z,2.10
2023-01-31T02:39:47.405Z,2.58
2023-01-31T02:42:14.482Z,2.55
2023-01-31T02:45:00.261Z,2.50
2023-01-31T02:47:56.264Z,2.00
2023-01-31T02:50:44.743Z,2.58
2023-01-31T02:53:23.700Z,2.78
2023-01-31T02:56:17.015Z,1.77
2023-01-31T02:58:51.963Z,2.83
2023-01-31T03:01:24.998Z,3.30
2023-01-31T03:03:53.230Z,2.53
2023-01-31T03:06:23.514Z,1.90
2023-01-31T03:08:58.557Z,2.10
2023-01-31T03:11:38.998Z,2.47
2023-01-31T03:14:06.053Z,2.30
2023-01-31T03:17:02.429Z,2.53
2023-01-31T03:19:38.844Z,1.88
2023-01-31T03:22:18.526Z,2.50
2023-01-31T03:24:48.365Z,1.90
2023-01-31T03:27:16.816Z,2.28
2023-01-31T03:29:48.035Z,2.20
2023-01-31T03:32:27.681Z,2.03
2023-01-31T03:34:55.413Z,2.55
2023-01-31T03:37:41.345Z,1.88
2023-01-31T03:40:24.494Z,2.30
2023-01-31T03:43:03.184Z,3.28
2023-01-31T03:45:53.085Z,2.78
2023-01-31T03:48:22.921Z,1.98
2023-01-31T03:50:55.392Z,2.10
2023-01-31T03:53:29.446Z,1.95
2023-01-31T03:56:00.492Z,1.88
2023-01-31T03:58:32.390Z,2.28
2023-01-31T04:01:03.282Z,2.45
2023-01-31T04:03:38.545Z,2.10
2023-01-31T04:06:06.417Z,1.98
2023-01-31T04:08:34.632Z,1.92
2023-01-31T04:11:08.897Z,2.17
2023-01-31T04:13:36.140Z,2.33
2023-01-31T04:16:04.058Z,2.05
2023-01-31T04:18:31.387Z,1.73
2023-01-31T04:20:58.493Z,2.22
2023-01-31T04:23:27.006Z,2.72
2023-01-31T04:25:57.742Z,2.42
2023-01-31T04:28:25.037Z,2.35
2023-01-31T04:30:56.925Z,2.20
2023-01-31T04:33:24.740Z,2.10
2023-01-31T04:35:52.771Z,2.58
2023-01-31T04:38:19.886Z,1.90
2023-01-31T04:40:47.104Z,1.65
2023-01-31T04:43:14.532Z,2.40
2023-01-31T04:45:41.804Z,2.05
2023-01-31T04:48:09.200Z,2.10
2023-01-31T04:50:36.638Z,2.00
2023-01-31T04:53:04.956Z,2.42
2023-01-31T04:55:32.181Z,3.03
2023-01-31T04:57:59.235Z,2.35
2023-01-31T05:00:26.403Z,2.25
2023-01-31T05:02:54.030Z,2.30
2023-01-31T05:05:21.779Z,2.13
2023-01-31T05:07:49.116Z,2.40
2023-01-31T05:10:16.399Z,2.15
2023-01-31T05:12:43.591Z,1.85
2023-01-31T05:15:13.981Z,2.40
2023-01-31T05:17:41.094Z,2.10
2023-01-31T05:20:09.106Z,2.15
2023-01-31T05:22:36.319Z,1.80
2023-01-31T05:25:03.823Z,2.63
2023-01-31T05:27:31.508Z,2.25
2023-01-31T05:29:58.955Z,2.40
2023-01-31T05:32:26.124Z,2.17
2023-01-31T05:34:53.160Z,2.20
2023-01-31T05:37:20.306Z,1.88
2023-01-31T05:39:47.306Z,2.15
2023-01-31T05:42:14.432Z,2.75
2023-01-31T05:44:41.669Z,2.25
2023-01-31T05:47:08.715Z,2.25
2023-01-31T05:49:36.882Z,1.98
2023-01-31T05:52:04.172Z,2.30
2023-01-31T05:54:31.380Z,2.30
2023-01-31T05:56:58.530Z,2.28
2023-01-31T05:59:26.621Z,1.80
2023-01-31T06:01:54.645Z,1.95
2023-01-31T06:04:21.840Z,2.22
2023-01-31T06:06:48.906Z,2.85
2023-01-31T06:09:16.122Z,1.98
2023-01-31T06:11:43.242Z,2.03
2023-01-31T06:14:10.599Z,2.45
2023-01-31T06:16:37.714Z,1.98
2023-01-31T06:19:04.834Z,2.83
2023-01-31T06:21:32.114Z,2.95
2023-01-31T06:23:59.707Z,2.00
2023-01-31T06:26:27.022Z,1.98
2023-01-31T06:28:54.149Z,2.10
2023-01-31T06:31:21.422Z,2.30
2023-01-31T06:33:48.512Z,3.67
2023-01-31T06:36:19.150Z,2.30
2023-01-31T06:38:51.131Z,2.60
2023-01-31T06:41:19.624Z,2.70
2023-01-31T06:43:46.734Z,2.80
2023-01-31T06:46:13.896Z,2.20
2023-01-31T06:48:40.981Z,2.13
2023-01-31T06:51:08.082Z,2.60
2023-01-31T06:53:35.095Z,2.30
2023-01-31T06:56:02.481Z,2.30
2023-01-31T06:58:29.645Z,2.38
2023-01-31T07:00:57.357Z,2.33
2023-01-31T07:03:24.589Z,2.45
2023-01-31T07:05:51.669Z,2.55
2023-01-31T07:08:18.773Z,2.35
2023-01-31T07:10:48.504Z,3.10
2023-01-31T07:13:15.935Z,2.20
2023-01-31T07:15:43.147Z,2.53
2023-01-31T07:18:10.314Z,1.95
2023-01-31T07:20:37.351Z,2.25
2023-01-31T07:23:04.462Z,2.55
2023-01-31T07:25:34.315Z,2.22
2023-01-31T07:28:02.368Z,3.20
2023-01-31T07:30:30.406Z,2.53
2023-01-31T07:32:57.637Z,2.40
2023-01-31T07:35:24.955Z,2.22
2023-01-31T07:37:53.013Z,2.47
2023-01-31T07:40:20.164Z,3.25
2023-01-31T07:42:47.535Z,2.75
2023-01-31T07:45:33.310Z,2.35
2023-01-31T07:48:00.638Z,2.15
2023-01-31T07:50:28.029Z,2.28
2023-01-31T07:52:57.398Z,2.72
2023-01-31T07:55:24.707Z,2.80
2023-01-31T07:57:51.932Z,2.85
2023-01-31T08:00:38.274Z,2.42
2023-01-31T08:03:24.163Z,2.33
2023-01-31T08:05:51.345Z,2.50
2023-01-31T08:08:18.423Z,2.25
2023-01-31T08:10:47.453Z,2.60
2023-01-31T08:13:14.514Z,2.45
2023-01-31T08:15:44.426Z,2.42
2023-01-31T08:18:11.514Z,2.60
2023-01-31T08:20:38.723Z,2.50
2023-01-31T08:23:05.794Z,2.60
2023-01-31T08:25:32.995Z,2.70
2023-01-31T08:28:00.724Z,2.97
2023-01-31T08:30:29.729Z,2.90
2023-01-31T08:32:57.140Z,2.80
2023-01-31T08:35:26.959Z,2.55
2023-01-31T08:38:00.875Z,2.50
2023-01-31T08:40:34.152Z,2.45
2023-01-31T08:43:01.452Z,2.40
2023-01-31T08:45:30.375Z,2.53
2023-01-31T08:48:00.240Z,2.25
2023-01-31T08:50:29.290Z,4.03
2023-01-31T08:53:02.080Z,3.15
2023-01-31T08:55:31.281Z,3.00
2023-01-31T08:58:00.265Z,3.28
2023-01-31T09:00:28.120Z,4.15
2023-01-31T09:02:57.506Z,3.25
2023-01-31T09:05:30.118Z,4.40
2023-01-31T09:07:57.568Z,3.20
2023-01-31T09:10:24.945Z,3.95
2023-01-31T09:12:52.134Z,3.92
2023-01-31T09:15:19.576Z,4.18
2023-01-31T09:17:46.946Z,4.28
2023-01-31T09:20:14.094Z,3.90
2023-01-31T09:22:41.285Z,3.95
2023-01-31T09:25:09.376Z,4.90
2023-01-31T09:27:38.767Z,4.03
2023-01-31T09:30:08.244Z,4.40
2023-01-31T09:32:37.248Z,3.97
2023-01-31T09:35:04.671Z,3.78
2023-01-31T09:37:32.224Z,4.35
2023-01-31T09:39:59.441Z,4.20
2023-01-31T09:42:43.038Z,3.45
2023-01-31T09:45:24.352Z,4.13
2023-01-31T09:47:54.671Z,4.63
2023-01-31T09:50:21.799Z,3.72
2023-01-31T09:52:49.990Z,4.00
2023-01-31T09:55:19.656Z,4.05
2023-01-31T09:58:02.302Z,4.78
2023-01-31T10:00:39.645Z,4.47
2023-01-31T10:03:28.764Z,4.63
2023-01-31T10:06:04.432Z,4.07
2023-01-31T10:09:19.196Z,4.47
2023-01-31T10:12:20.989Z,4.65
2023-01-31T10:14:52.999Z,5.05
2023-01-31T10:17:44.484Z,4.22
2023-01-31T10:20:50.327Z,4.75
2023-01-31T10:23:23.434Z,3.85
2023-01-31T10:25:59.784Z,4.30
2023-01-31T10:28:47.925Z,4.20
2023-01-31T10:31:43.903Z,3.33
2023-01-31T10:34:18.238Z,4.50
2023-01-31T10:36:55.263Z,6.00
2023-01-31T10:39:30.240Z,4.07
2023-01-31T10:42:06.872Z,3.95
2023-01-31T10:45:03.529Z,3.80
2023-01-31T10:47:39.584Z,3.92
2023-01-31T10:50:30.895Z,3.95
2023-01-31T10:53:13.099Z,3.63
2023-01-31T10:56:00.194Z,3.53
2023-01-31T10:58:27.377Z,4.00
2023-01-31T11:00:55.339Z,4.40
2023-01-31T11:03:22.751Z,3.85
2023-01-31T11:05:55.758Z,3.97
2023-01-31T11:08:35.514Z,3.65
2023-01-31T11:11:11.748Z,3.80
2023-01-31T11:13:39.725Z,4.15
2023-01-31T11:16:09.754Z,3.83
2023-01-31T11:18:44.227Z,3.05
2023-01-31T11:21:27.709Z,3.33
2023-01-31T11:24:05.087Z,5.20
2023-01-31T11:26:36.989Z,3.45
2023-01-31T11:29:19.102Z,4.10
2023-01-31T11:31:47.988Z,3.55
2023-01-31T11:34:30.259Z,3.10
2023-01-31T11:37:15.409Z,3.40
2023-01-31T11:39:42.635Z,2.80
2023-01-31T11:42:15.098Z,3.15
2023-01-31T11:45:16.423Z,2.90
2023-01-31T11:47:47.307Z,3.03
2023-01-31T11:50:38.154Z,3.50
2023-01-31T11:53:18.050Z,3.50
2023-01-31T11:55:47.929Z,3.75
2023-01-31T11:58:30.352Z,3.00
2023-01-31T12:01:13.615Z,2.60
2023-01-31T12:04:02.664Z,2.80
2023-01-31T12:06:38.314Z,2.92
2023-01-31T12:09:27.367Z,3.65
2023-01-31T12:12:00.577Z,2.72
2023-01-31T12:14:40.740Z,3.53
2023-01-31T12:17:14.378Z,2.72
2023-01-31T12:20:25.414Z,3.22
2023-01-31T12:23:00.321Z,3.25
2023-01-31T12:25:53.637Z,2.92
2023-01-31T12:28:20.684Z,2.80
2023-01-31T12:31:00.000Z,2.67
2023-01-31T12:33:45.568Z,2.70
2023-01-31T12:36:26.462Z,2.88
2023-01-31T12:39:12.516Z,3.13
2023-01-31T12:42:18.291Z,2.67
2023-01-31T12:44:50.392Z,3.08
2023-01-31T12:48:05.929Z,3.45
2023-01-31T12:50:47.197Z,2.40
2023-01-31T12:53:55.360Z,2.40
2023-01-31T12:56:31.267Z,2.83
2023-01-31T12:59:16.848Z,3.42
2023-01-31T13:02:03.634Z,3.05
2023-01-31T13:04:44.105Z,10.77
2023-01-31T13:07:29.052Z,2.80
2023-01-31T13:09:59.357Z,2.97
2023-01-31T13:15:27.930Z,3.38
2023-01-31T13:18:00.998Z,3.38
2023-01-31T13:20:41.144Z,3.03
2023-01-31T13:23:17.118Z,3.13
2023-01-31T13:25:51.824Z,2.63
2023-01-31T13:28:23.334Z,2.78
2023-01-31T13:31:00.463Z,2.67
2023-01-31T13:33:40.620Z,2.33
2023-01-31T13:36:28.736Z,2.40
2023-01-31T13:38:56.684Z,3.05
2023-01-31T13:41:34.122Z,3.30
2023-01-31T13:44:02.519Z,4.00
2023-01-31T13:46:36.020Z,3.40
2023-01-31T13:49:19.381Z,3.70
2023-01-31T13:52:16.198Z,3.55
2023-01-31T13:54:51.379Z,3.50
2023-01-31T13:57:32.125Z,3.35
2023-01-31T14:00:24.928Z,3.50
2023-01-31T14:03:08.397Z,3.53
2023-01-31T14:05:41.532Z,3.83
2023-01-31T14:08:27.519Z,3.50
2023-01-31T14:11:00.570Z,3.05
2023-01-31T14:13:33.556Z,3.33
2023-01-31T14:16:01.600Z,4.15
2023-01-31T14:18:40.351Z,3.55
2023-01-31T14:21:29.416Z,2.70
2023-01-31T14:24:01.340Z,3.00
2023-01-31T14:26:43.716Z,3.05
2023-01-31T14:29:16.856Z,3.00
2023-01-31T14:31:45.610Z,3.65
2023-01-31T14:34:18.840Z,3.17
2023-01-31T14:37:07.469Z,2.47
2023-01-31T14:40:25.373Z,2.70
2023-01-31T14:43:01.102Z,2.20
2023-01-31T14:45:33.856Z,2.00
2023-01-31T14:48:48.313Z,2.25
2023-01-31T14:51:44.894Z,2.33
2023-01-31T14:54:14.794Z,2.63
2023-01-31T14:57:12.063Z,2.22
2023-01-31T14:59:41.829Z,2.13
2023-01-31T15:02:33.051Z,2.65
2023-01-31T15:05:14.697Z,2.42
2023-01-31T15:08:06.590Z,2.83
2023-01-31T15:11:40.213Z,3.10
2023-01-31T15:14:36.037Z,3.10
2023-01-31T15:17:23.353Z,4.00
2023-01-31T15:20:19.927Z,3.75
2023-01-31T15:22:49.048Z,3.33
2023-01-31T15:25:29.483Z,4.03
2023-01-31T15:27:57.912Z,3.78
2023-01-31T15:30:27.889Z,3.65
2023-01-31T15:33:08.380Z,4.00
2023-01-31T15:35:53.928Z,4.00
2023-01-31T15:38:35.000Z,3.83
2023-01-31T15:41:23.087Z,3.45
2023-01-31T15:44:20.286Z,4.28
2023-01-31T15:46:50.476Z,4.38
2023-01-31T15:49:39.067Z,4.22
2023-01-31T15:52:18.647Z,4.43
2023-01-31T15:54:52.825Z,4.38
2023-01-31T15:57:22.697Z,5.10
2023-01-31T15:59:49.970Z,4.40
2023-01-31T16:02:26.431Z,5.10
2023-01-31T16:04:53.726Z,4.20
2023-01-31T16:07:23.904Z,3.88
2023-01-31T16:12:19.013Z,3.70
2023-01-31T16:14:49.115Z,4.50
2023-01-31T16:17:16.960Z,3.72
2023-01-31T16:19:48.927Z,3.60
2023-01-31T16:22:55.546Z,3.50
2023-01-31T16:25:23.062Z,4.60
2023-01-31T16:27:50.420Z,4.50
2023-01-31T16:30:19.333Z,4.20
2023-01-31T16:32:51.589Z,4.15
2023-01-31T16:35:27.635Z,3.78
2023-01-31T16:38:30.195Z,4.53
2023-01-31T16:41:00.927Z,5.93
2023-01-31T16:43:33.292Z,6.22
2023-01-31T16:46:06.985Z,5.80
2023-01-31T16:48:39.084Z,6.90
2023-01-31T16:51:28.395Z,7.18
2023-01-31T16:54:20.299Z,8.13
2023-01-31T16:57:08.150Z,8.40
2023-01-31T16:59:35.340Z,8.68
2023-01-31T17:02:08.528Z,8.88
2023-01-31T17:04:39.912Z,9.00
2023-01-31T17:07:16.699Z,8.40
2023-01-31T17:09:44.352Z,9.07
2023-01-31T17:12:26.799Z,10.23
2023-01-31T17:15:00.906Z,10.32
2023-01-31T17:17:35.257Z,10.55
2023-01-31T17:20:02.392Z,9.13
2023-01-31T17:22:29.648Z,10.18
2023-01-31T17:24:56.729Z,9.90
2023-01-31T17:27:25.293Z,10.90
2023-01-31T17:29:52.402Z,10.25
2023-01-31T17:32:21.260Z,11.30
2023-01-31T17:34:49.186Z,11.00
2023-01-31T17:37:20.725Z,11.82
2023-01-31T17:39:51.045Z,10.18
2023-01-31T17:42:21.082Z,12.05
2023-01-31T17:44:48.202Z,9.93
2023-01-31T17:47:16.338Z,11.18
2023-01-31T17:49:45.129Z,11.68
2023-01-31T17:52:12.521Z,11.55
2023-01-31T17:54:39.703Z,10.77
2023-01-31T17:57:06.721Z,12.30
2023-01-31T17:59:33.865Z,11.00
2023-01-31T18:02:01.252Z,11.38
2023-01-31T18:04:28.424Z,9.55
2023-01-31T18:06:55.682Z,10.68
2023-01-31T18:09:22.972Z,9.57
2023-01-31T18:11:50.203Z,9.68
2023-01-31T18:14:17.611Z,10.25
2023-01-31T18:16:44.685Z,10.23
2023-01-31T18:19:12.043Z,10.65
2023-01-31T18:21:46.798Z,9.70
2023-01-31T18:24:17.227Z,8.77
2023-01-31T18:26:45.319Z,9.27
2023-01-31T18:29:19.579Z,9.25
2023-01-31T18:31:48.282Z,9.77
2023-01-31T18:34:16.249Z,8.98
2023-01-31T18:36:43.467Z,7.07
2023-01-31T18:39:11.389Z,8.38
2023-01-31T18:41:38.511Z,7.50
2023-01-31T18:44:05.749Z,7.18
2023-01-31T18:46:33.011Z,7.55
2023-01-31T18:49:00.102Z,7.07
2023-01-31T18:51:27.343Z,7.45
2023-01-31T18:53:54.485Z,7.07
2023-01-31T18:56:22.362Z,6.85
2023-01-31T18:58:50.102Z,7.88
2023-01-31T19:01:21.418Z,7.32
2023-01-31T19:03:53.038Z,6.55
2023-01-31T19:06:23.550Z,6.80
2023-01-31T19:08:52.353Z,7.40
2023-01-31T19:11:20.934Z,7.15
2023-01-31T19:13:48.234Z,6.78
2023-01-31T19:16:27.438Z,6.53
2023-01-31T19:18:56.425Z,7.57
2023-01-31T19:21:24.595Z,8.38
2023-01-31T19:23:55.296Z,9.15
2023-01-31T19:26:22.690Z,8.90
2023-01-31T19:28:50.286Z,7.38
2023-01-31T19:31:20.518Z,8.95
2023-01-31T19:36:18.887Z,8.23
2023-01-31T19:38:46.234Z,9.00
2023-01-31T19:41:17.167Z,9.02
2023-01-31T19:43:44.632Z,9.00
2023-01-31T19:46:12.491Z,9.00
2023-01-31T19:48:39.547Z,8.02
2023-01-31T19:51:08.882Z,8.43
2023-01-31T19:53:36.657Z,9.23
2023-01-31T19:56:04.696Z,9.82
2023-01-31T19:58:32.211Z,10.95
2023-01-31T20:01:05.479Z,10.45
2023-01-31T20:03:33.242Z,11.35
2023-01-31T20:06:05.783Z,10.20
2023-01-31T20:08:32.870Z,11.93
2023-01-31T20:11:00.134Z,11.38
2023-01-31T20:13:27.297Z,10.57
2023-01-31T20:16:03.263Z,11.35
2023-01-31T20:18:31.827Z,11.57
2023-01-31T20:20:58.917Z,11.02
2023-01-31T20:23:26.059Z,11.00
2023-01-31T20:25:53.523Z,10.95
2023-01-31T20:28:20.951Z,11.02
2023-01-31T20:30:48.791Z,10.88
2023-01-31T20:33:16.572Z,11.63
2023-01-31T20:35:44.214Z,10.35
2023-01-31T20:38:11.788Z,11.63
2023-01-31T20:40:39.172Z,11.02
2023-01-31T20:43:07.107Z,10.75
2023-01-31T20:45:34.557Z,11.30
2023-01-31T20:48:01.654Z,10.75
2023-01-31T20:50:28.899Z,10.25
2023-01-31T20:52:56.993Z,10.85
2023-01-31T20:55:24.511Z,9.20
2023-01-31T20:57:51.883Z,9.00
2023-01-31T21:00:21.533Z,9.77
2023-01-31T21:02:49.668Z,5.53
2023-01-31T21:05:18.354Z,6.00
2023-01-31T21:07:45.752Z,4.78
2023-01-31T21:10:13.976Z,5.65
2023-01-31T21:12:41.287Z,4.78
2023-01-31T21:15:08.863Z,3.83
2023-01-31T21:17:40.247Z,6.80
2023-01-31T21:20:08.970Z,4.13
2023-01-31T21:22:36.147Z,4.20
2023-01-31T21:25:03.377Z,3.67
2023-01-31T21:27:30.613Z,3.25
2023-01-31T21:32:35.901Z,3.92
2023-01-31T21:35:03.556Z,2.40
2023-01-31T21:37:30.741Z,1.98
2023-01-31T21:39:57.866Z,1.40
2023-01-31T21:42:25.439Z,1.70
2023-01-31T21:44:52.535Z,1.50
2023-01-31T21:47:20.041Z,1.25
2023-01-31T21:49:47.100Z,1.00
2023-01-31T21:52:14.295Z,1.02
2023-01-31T21:54:41.517Z,1.02
2023-01-31T21:57:08.633Z,1.40
2023-01-31T21:59:36.608Z,1.30
2023-01-31T22:02:03.741Z,1.20
2023-01-31T22:04:30.981Z,2.17
2023-01-31T22:06:58.129Z,1.30
2023-01-31T22:09:25.385Z,1.30
2023-01-31T22:11:54.649Z,1.42
2023-01-31T22:14:21.942Z,1.60
2023-01-31T22:16:50.298Z,1.58
2023-01-31T22:19:17.421Z,2.10
2023-01-31T22:21:44.515Z,1.42
2023-01-31T22:24:11.876Z,1.83
2023-01-31T22:26:43.974Z,1.50
2023-01-31T22:29:13.829Z,1.35
2023-01-31T22:31:41.000Z,1.75
2023-01-31T22:34:12.646Z,1.45
2023-01-31T22:36:39.759Z,1.20
2023-01-31T22:39:06.824Z,3.03
2023-01-31T22:41:34.040Z,1.90
2023-01-31T22:44:01.079Z,1.85
2023-01-31T22:46:30.075Z,2.13
2023-01-31T22:48:58.121Z,1.90
2023-01-31T22:51:28.265Z,1.65
2023-01-31T22:53:57.042Z,1.60
2023-01-31T22:56:30.275Z,1.70
2023-01-31T22:59:05.353Z,2.05
2023-01-31T23:01:37.867Z,2.20
2023-01-31T23:04:08.185Z,2.03
2023-01-31T23:09:03.660Z,2.40
2023-01-31T23:11:30.878Z,2.20
2023-01-31T23:13:58.720Z,2.35
2023-01-31T23:16:46.314Z,2.55
2023-01-31T23:19:14.931Z,1.90
2023-01-31T23:21:43.008Z,1.73
2023-01-31T23:24:11.476Z,2.42
2023-01-31T23:26:39.003Z,2.65
2023-01-31T23:29:06.471Z,1.80
2023-01-31T23:31:33.875Z,2.15
2023-01-31T23:34:01.082Z,3.13
2023-01-31T23:36:28.447Z,2.28
2023-01-31T23:38:55.814Z,2.10
2023-01-31T23:41:22.904Z,2.38
2023-01-31T23:43:49.880Z,2.60
2023-01-31T23:46:17.028Z,2.55
2023-01-31T23:48:44.177Z,2.08
2023-01-31T23:51:11.209Z,1.90
2023-01-31T23:53:38.302Z,1.92
2023-01-31T23:56:05.611Z,1.70
2023-01-31T23:58:32.774Z,2.58
